sensor_id;sensor_type;location;lat;lon;timestamp;P1;durP1;ratioP1;P2;durP2;ratioP2
77004;SDS011;67261;53.132;18.006;2023-04-03T00:01:18;5.70;;;0.80;;
77004;SDS011;67261;53.132;18.006;2023-04-03T00:03:45;4.20;;;1.00;;
77004;SDS011;67261;53.132;18.006;2023-04-03T00:06:12;4.60;;;1.50;;
77004;SDS011;67261;53.132;18.006;2023-04-03T00:08:40;4.70;;;1.00;;
77004;SDS011;67261;53.132;18.006;2023-04-03T00:11:07;4.70;;;1.10;;
77004;SDS011;67261;53.132;18.006;2023-04-03T00:13:35;5.30;;;1.20;;
77004;SDS011;67261;53.132;18.006;2023-04-03T00:16:02;5.30;;;1.40;;
77004;SDS011;67261;53.132;18.006;2023-04-03T00:18:30;4.40;;;1.40;;
77004;SDS011;67261;53.132;18.006;2023-04-03T00:20:57;4.90;;;1.00;;
77004;SDS011;67261;53.132;18.006;2023-04-03T00:23:24;4.90;;;1.20;;
77004;SDS011;67261;53.132;18.006;2023-04-03T00:25:51;5.30;;;1.60;;
77004;SDS011;67261;53.132;18.006;2023-04-03T00:30:46;4.60;;;1.10;;
77004;SDS011;67261;53.132;18.006;2023-04-03T00:33:15;4.70;;;1.00;;
77004;SDS011;67261;53.132;18.006;2023-04-03T00:35:42;5.40;;;1.10;;
77004;SDS011;67261;53.132;18.006;2023-04-03T00:38:09;3.70;;;1.00;;
77004;SDS011;67261;53.132;18.006;2023-04-03T00:40:37;4.00;;;1.10;;
77004;SDS011;67261;53.132;18.006;2023-04-03T00:43:13;6.80;;;1.30;;
77004;SDS011;67261;53.132;18.006;2023-04-03T00:45:52;6.60;;;1.40;;
77004;SDS011;67261;53.132;18.006;2023-04-03T00:48:36;5.50;;;1.30;;
77004;SDS011;67261;53.132;18.006;2023-04-03T00:51:06;7.20;;;1.40;;
77004;SDS011;67261;53.132;18.006;2023-04-03T00:54:10;5.10;;;1.20;;
77004;SDS011;67261;53.132;18.006;2023-04-03T00:56:32;5.50;;;1.50;;
77004;SDS011;67261;53.132;18.006;2023-04-03T00:59:00;3.30;;;1.00;;
77004;SDS011;67261;53.132;18.006;2023-04-03T01:01:31;5.20;;;1.00;;
77004;SDS011;67261;53.132;18.006;2023-04-03T01:03:59;6.40;;;1.30;;
77004;SDS011;67261;53.132;18.006;2023-04-03T01:06:32;6.10;;;1.10;;
77004;SDS011;67261;53.132;18.006;2023-04-03T01:09:06;4.30;;;1.40;;
77004;SDS011;67261;53.132;18.006;2023-04-03T01:11:34;5.30;;;1.10;;
77004;SDS011;67261;53.132;18.006;2023-04-03T01:14:02;5.10;;;1.10;;
77004;SDS011;67261;53.132;18.006;2023-04-03T01:16:29;4.70;;;1.10;;
77004;SDS011;67261;53.132;18.006;2023-04-03T01:18:59;4.00;;;1.10;;
77004;SDS011;67261;53.132;18.006;2023-04-03T01:26:51;4.30;;;1.00;;
77004;SDS011;67261;53.132;18.006;2023-04-03T01:29:20;4.80;;;1.10;;
77004;SDS011;67261;53.132;18.006;2023-04-03T01:31:49;4.10;;;1.00;;
77004;SDS011;67261;53.132;18.006;2023-04-03T01:34:24;6.60;;;1.30;;
77004;SDS011;67261;53.132;18.006;2023-04-03T01:36:52;3.40;;;0.80;;
77004;SDS011;67261;53.132;18.006;2023-04-03T01:39:20;4.10;;;1.30;;
77004;SDS011;67261;53.132;18.006;2023-04-03T01:41:48;4.70;;;1.10;;
77004;SDS011;67261;53.132;18.006;2023-04-03T01:44:26;6.20;;;1.20;;
77004;SDS011;67261;53.132;18.006;2023-04-03T01:46:53;5.10;;;1.40;;
77004;SDS011;67261;53.132;18.006;2023-04-03T01:49:21;4.40;;;1.40;;
77004;SDS011;67261;53.132;18.006;2023-04-03T01:51:48;5.70;;;0.80;;
77004;SDS011;67261;53.132;18.006;2023-04-03T01:54:15;5.00;;;1.20;;
77004;SDS011;67261;53.132;18.006;2023-04-03T01:56:42;5.60;;;1.50;;
77004;SDS011;67261;53.132;18.006;2023-04-03T01:59:09;4.70;;;1.30;;
77004;SDS011;67261;53.132;18.006;2023-04-03T02:01:36;4.00;;;1.00;;
77004;SDS011;67261;53.132;18.006;2023-04-03T02:04:03;3.80;;;0.70;;
77004;SDS011;67261;53.132;18.006;2023-04-03T02:06:31;3.50;;;0.70;;
77004;SDS011;67261;53.132;18.006;2023-04-03T02:08:58;5.00;;;1.20;;
77004;SDS011;67261;53.132;18.006;2023-04-03T02:11:25;2.60;;;1.00;;
77004;SDS011;67261;53.132;18.006;2023-04-03T02:13:53;3.70;;;0.90;;
77004;SDS011;67261;53.132;18.006;2023-04-03T02:16:20;6.10;;;1.30;;
77004;SDS011;67261;53.132;18.006;2023-04-03T02:18:49;6.20;;;1.40;;
77004;SDS011;67261;53.132;18.006;2023-04-03T02:21:17;4.00;;;1.00;;
77004;SDS011;67261;53.132;18.006;2023-04-03T02:23:44;4.00;;;1.00;;
77004;SDS011;67261;53.132;18.006;2023-04-03T02:26:13;4.50;;;1.20;;
77004;SDS011;67261;53.132;18.006;2023-04-03T02:28:41;5.10;;;1.40;;
77004;SDS011;67261;53.132;18.006;2023-04-03T02:31:09;4.50;;;1.00;;
77004;SDS011;67261;53.132;18.006;2023-04-03T02:33:38;8.00;;;1.20;;
77004;SDS011;67261;53.132;18.006;2023-04-03T02:36:07;4.10;;;1.30;;
77004;SDS011;67261;53.132;18.006;2023-04-03T02:38:35;5.40;;;1.00;;
77004;SDS011;67261;53.132;18.006;2023-04-03T02:41:06;4.50;;;1.00;;
77004;SDS011;67261;53.132;18.006;2023-04-03T02:43:35;5.10;;;1.40;;
77004;SDS011;67261;53.132;18.006;2023-04-03T02:46:02;4.30;;;0.80;;
77004;SDS011;67261;53.132;18.006;2023-04-03T02:48:29;6.90;;;1.30;;
77004;SDS011;67261;53.132;18.006;2023-04-03T02:50:57;5.90;;;1.00;;
77004;SDS011;67261;53.132;18.006;2023-04-03T02:53:24;3.80;;;1.20;;
77004;SDS011;67261;53.132;18.006;2023-04-03T02:55:51;7.30;;;1.50;;
77004;SDS011;67261;53.132;18.006;2023-04-03T02:58:18;7.30;;;1.20;;
77004;SDS011;67261;53.132;18.006;2023-04-03T03:00:45;7.40;;;3.60;;
77004;SDS011;67261;53.132;18.006;2023-04-03T03:03:12;5.40;;;2.00;;
77004;SDS011;67261;53.132;18.006;2023-04-03T03:05:40;8.90;;;2.30;;
77004;SDS011;67261;53.132;18.006;2023-04-03T03:08:07;5.60;;;2.00;;
77004;SDS011;67261;53.132;18.006;2023-04-03T03:10:34;5.30;;;1.60;;
77004;SDS011;67261;53.132;18.006;2023-04-03T03:13:02;4.10;;;1.40;;
77004;SDS011;67261;53.132;18.006;2023-04-03T03:15:30;3.20;;;0.90;;
77004;SDS011;67261;53.132;18.006;2023-04-03T03:17:57;2.80;;;1.10;;
77004;SDS011;67261;53.132;18.006;2023-04-03T03:20:24;7.10;;;1.60;;
77004;SDS011;67261;53.132;18.006;2023-04-03T03:22:52;6.90;;;1.20;;
77004;SDS011;67261;53.132;18.006;2023-04-03T03:25:19;3.40;;;0.80;;
77004;SDS011;67261;53.132;18.006;2023-04-03T03:27:46;3.90;;;0.90;;
77004;SDS011;67261;53.132;18.006;2023-04-03T03:30:13;5.60;;;1.20;;
77004;SDS011;67261;53.132;18.006;2023-04-03T03:32:40;5.40;;;0.90;;
77004;SDS011;67261;53.132;18.006;2023-04-03T03:35:07;5.40;;;1.70;;
77004;SDS011;67261;53.132;18.006;2023-04-03T03:37:35;3.50;;;0.80;;
77004;SDS011;67261;53.132;18.006;2023-04-03T03:40:02;3.60;;;1.00;;
77004;SDS011;67261;53.132;18.006;2023-04-03T03:42:30;3.90;;;0.90;;
77004;SDS011;67261;53.132;18.006;2023-04-03T03:44:58;4.40;;;1.10;;
77004;SDS011;67261;53.132;18.006;2023-04-03T03:47:25;3.60;;;0.70;;
77004;SDS011;67261;53.132;18.006;2023-04-03T03:49:52;9.60;;;4.00;;
77004;SDS011;67261;53.132;18.006;2023-04-03T03:52:20;4.60;;;1.10;;
77004;SDS011;67261;53.132;18.006;2023-04-03T03:54:47;4.30;;;1.20;;
77004;SDS011;67261;53.132;18.006;2023-04-03T03:57:15;3.00;;;0.90;;
77004;SDS011;67261;53.132;18.006;2023-04-03T03:59:43;4.70;;;1.20;;
77004;SDS011;67261;53.132;18.006;2023-04-03T04:02:11;4.30;;;1.40;;
77004;SDS011;67261;53.132;18.006;2023-04-03T04:04:38;4.90;;;1.40;;
77004;SDS011;67261;53.132;18.006;2023-04-03T04:07:05;6.10;;;1.60;;
77004;SDS011;67261;53.132;18.006;2023-04-03T04:09:33;5.40;;;1.20;;
77004;SDS011;67261;53.132;18.006;2023-04-03T04:12:01;3.90;;;1.10;;
77004;SDS011;67261;53.132;18.006;2023-04-03T04:14:28;2.70;;;0.80;;
77004;SDS011;67261;53.132;18.006;2023-04-03T04:19:25;4.00;;;1.10;;
77004;SDS011;67261;53.132;18.006;2023-04-03T04:21:52;4.10;;;0.90;;
77004;SDS011;67261;53.132;18.006;2023-04-03T04:24:19;3.60;;;1.10;;
77004;SDS011;67261;53.132;18.006;2023-04-03T04:26:47;3.70;;;1.30;;
77004;SDS011;67261;53.132;18.006;2023-04-03T04:29:15;6.80;;;1.70;;
77004;SDS011;67261;53.132;18.006;2023-04-03T04:31:43;3.50;;;1.00;;
77004;SDS011;67261;53.132;18.006;2023-04-03T04:34:10;6.30;;;1.80;;
77004;SDS011;67261;53.132;18.006;2023-04-03T04:36:40;4.60;;;1.60;;
77004;SDS011;67261;53.132;18.006;2023-04-03T04:39:08;4.40;;;1.60;;
77004;SDS011;67261;53.132;18.006;2023-04-03T04:41:35;5.70;;;2.00;;
77004;SDS011;67261;53.132;18.006;2023-04-03T04:46:31;3.80;;;1.50;;
77004;SDS011;67261;53.132;18.006;2023-04-03T04:48:59;7.20;;;2.40;;
77004;SDS011;67261;53.132;18.006;2023-04-03T04:51:27;5.80;;;1.80;;
77004;SDS011;67261;53.132;18.006;2023-04-03T04:53:55;6.60;;;1.50;;
77004;SDS011;67261;53.132;18.006;2023-04-03T04:56:23;6.20;;;2.00;;
77004;SDS011;67261;53.132;18.006;2023-04-03T04:58:50;4.90;;;2.10;;
77004;SDS011;67261;53.132;18.006;2023-04-03T05:01:17;4.30;;;1.50;;
77004;SDS011;67261;53.132;18.006;2023-04-03T05:03:56;4.40;;;1.20;;
77004;SDS011;67261;53.132;18.006;2023-04-03T05:06:23;5.30;;;1.40;;
77004;SDS011;67261;53.132;18.006;2023-04-03T05:08:51;4.30;;;1.70;;
77004;SDS011;67261;53.132;18.006;2023-04-03T05:11:19;5.70;;;1.70;;
77004;SDS011;67261;53.132;18.006;2023-04-03T05:13:49;5.00;;;2.20;;
77004;SDS011;67261;53.132;18.006;2023-04-03T05:16:16;6.10;;;2.20;;
77004;SDS011;67261;53.132;18.006;2023-04-03T05:18:44;7.50;;;2.60;;
77004;SDS011;67261;53.132;18.006;2023-04-03T05:21:17;7.40;;;2.50;;
77004;SDS011;67261;53.132;18.006;2023-04-03T05:23:45;7.10;;;2.50;;
77004;SDS011;67261;53.132;18.006;2023-04-03T05:26:15;8.30;;;3.90;;
77004;SDS011;67261;53.132;18.006;2023-04-03T05:28:48;7.50;;;2.60;;
77004;SDS011;67261;53.132;18.006;2023-04-03T05:31:19;7.00;;;2.00;;
77004;SDS011;67261;53.132;18.006;2023-04-03T05:33:46;12.00;;;3.30;;
77004;SDS011;67261;53.132;18.006;2023-04-03T05:36:16;11.80;;;4.20;;
77004;SDS011;67261;53.132;18.006;2023-04-03T05:38:45;7.90;;;2.40;;
77004;SDS011;67261;53.132;18.006;2023-04-03T05:43:44;6.40;;;2.60;;
77004;SDS011;67261;53.132;18.006;2023-04-03T05:46:12;15.60;;;7.70;;
77004;SDS011;67261;53.132;18.006;2023-04-03T05:48:42;14.60;;;5.80;;
77004;SDS011;67261;53.132;18.006;2023-04-03T05:51:19;13.20;;;5.90;;
77004;SDS011;67261;53.132;18.006;2023-04-03T05:53:58;13.10;;;6.10;;
77004;SDS011;67261;53.132;18.006;2023-04-03T05:56:30;13.50;;;6.90;;
77004;SDS011;67261;53.132;18.006;2023-04-03T06:01:24;7.40;;;4.40;;
77004;SDS011;67261;53.132;18.006;2023-04-03T06:03:51;17.80;;;9.20;;
77004;SDS011;67261;53.132;18.006;2023-04-03T06:06:18;23.70;;;11.10;;
77004;SDS011;67261;53.132;18.006;2023-04-03T06:08:46;14.90;;;7.20;;
77004;SDS011;67261;53.132;18.006;2023-04-03T06:11:13;6.40;;;2.10;;
77004;SDS011;67261;53.132;18.006;2023-04-03T06:13:40;6.80;;;3.50;;
77004;SDS011;67261;53.132;18.006;2023-04-03T06:16:09;7.30;;;2.90;;
77004;SDS011;67261;53.132;18.006;2023-04-03T06:18:42;6.10;;;2.30;;
77004;SDS011;67261;53.132;18.006;2023-04-03T06:21:12;6.30;;;2.80;;
77004;SDS011;67261;53.132;18.006;2023-04-03T06:23:39;6.10;;;2.50;;
77004;SDS011;67261;53.132;18.006;2023-04-03T06:26:07;6.10;;;1.70;;
77004;SDS011;67261;53.132;18.006;2023-04-03T06:28:35;5.00;;;1.70;;
77004;SDS011;67261;53.132;18.006;2023-04-03T06:31:13;7.00;;;2.20;;
77004;SDS011;67261;53.132;18.006;2023-04-03T06:33:40;6.40;;;1.90;;
77004;SDS011;67261;53.132;18.006;2023-04-03T06:38:35;5.50;;;2.70;;
77004;SDS011;67261;53.132;18.006;2023-04-03T06:41:02;7.40;;;1.90;;
77004;SDS011;67261;53.132;18.006;2023-04-03T06:43:30;5.10;;;1.50;;
77004;SDS011;67261;53.132;18.006;2023-04-03T06:46:00;5.60;;;1.60;;
77004;SDS011;67261;53.132;18.006;2023-04-03T06:48:27;4.80;;;1.70;;
77004;SDS011;67261;53.132;18.006;2023-04-03T06:50:54;5.10;;;1.90;;
77004;SDS011;67261;53.132;18.006;2023-04-03T06:53:22;4.70;;;1.50;;
77004;SDS011;67261;53.132;18.006;2023-04-03T06:55:49;8.20;;;2.60;;
77004;SDS011;67261;53.132;18.006;2023-04-03T06:58:16;5.00;;;1.80;;
77004;SDS011;67261;53.132;18.006;2023-04-03T07:00:44;6.90;;;2.70;;
77004;SDS011;67261;53.132;18.006;2023-04-03T07:03:11;5.20;;;1.60;;
77004;SDS011;67261;53.132;18.006;2023-04-03T07:05:38;4.50;;;1.90;;
77004;SDS011;67261;53.132;18.006;2023-04-03T07:08:05;4.40;;;1.80;;
77004;SDS011;67261;53.132;18.006;2023-04-03T07:10:32;4.80;;;2.10;;
77004;SDS011;67261;53.132;18.006;2023-04-03T07:13:00;5.90;;;2.50;;
77004;SDS011;67261;53.132;18.006;2023-04-03T07:15:28;4.90;;;1.90;;
77004;SDS011;67261;53.132;18.006;2023-04-03T07:17:55;6.40;;;4.10;;
77004;SDS011;67261;53.132;18.006;2023-04-03T07:20:22;6.30;;;3.40;;
77004;SDS011;67261;53.132;18.006;2023-04-03T07:22:50;5.80;;;2.40;;
77004;SDS011;67261;53.132;18.006;2023-04-03T07:25:17;7.40;;;2.40;;
77004;SDS011;67261;53.132;18.006;2023-04-03T07:27:44;4.60;;;1.70;;
77004;SDS011;67261;53.132;18.006;2023-04-03T07:32:41;6.40;;;2.30;;
77004;SDS011;67261;53.132;18.006;2023-04-03T07:35:09;6.30;;;1.90;;
77004;SDS011;67261;53.132;18.006;2023-04-03T07:37:36;5.10;;;1.30;;
77004;SDS011;67261;53.132;18.006;2023-04-03T07:40:03;4.90;;;1.60;;
77004;SDS011;67261;53.132;18.006;2023-04-03T07:42:31;6.40;;;2.00;;
77004;SDS011;67261;53.132;18.006;2023-04-03T07:44:58;6.40;;;2.00;;
77004;SDS011;67261;53.132;18.006;2023-04-03T07:47:27;6.20;;;2.20;;
77004;SDS011;67261;53.132;18.006;2023-04-03T07:49:54;5.90;;;2.10;;
77004;SDS011;67261;53.132;18.006;2023-04-03T07:52:24;6.90;;;2.70;;
77004;SDS011;67261;53.132;18.006;2023-04-03T07:54:52;6.10;;;2.70;;
77004;SDS011;67261;53.132;18.006;2023-04-03T07:57:19;7.00;;;3.10;;
77004;SDS011;67261;53.132;18.006;2023-04-03T07:59:46;5.20;;;2.10;;
77004;SDS011;67261;53.132;18.006;2023-04-03T08:02:13;5.10;;;2.00;;
77004;SDS011;67261;53.132;18.006;2023-04-03T08:04:41;5.00;;;1.80;;
77004;SDS011;67261;53.132;18.006;2023-04-03T08:07:08;6.10;;;1.90;;
77004;SDS011;67261;53.132;18.006;2023-04-03T08:09:36;4.40;;;1.60;;
77004;SDS011;67261;53.132;18.006;2023-04-03T08:12:04;4.10;;;1.50;;
77004;SDS011;67261;53.132;18.006;2023-04-03T08:14:31;4.70;;;1.30;;
77004;SDS011;67261;53.132;18.006;2023-04-03T08:17:01;5.10;;;1.50;;
77004;SDS011;67261;53.132;18.006;2023-04-03T08:19:29;5.20;;;1.80;;
77004;SDS011;67261;53.132;18.006;2023-04-03T08:21:56;5.10;;;1.60;;
77004;SDS011;67261;53.132;18.006;2023-04-03T08:24:25;5.50;;;1.20;;
77004;SDS011;67261;53.132;18.006;2023-04-03T08:26:55;7.90;;;2.20;;
77004;SDS011;67261;53.132;18.006;2023-04-03T08:29:23;7.20;;;2.20;;
77004;SDS011;67261;53.132;18.006;2023-04-03T08:31:51;6.60;;;2.10;;
77004;SDS011;67261;53.132;18.006;2023-04-03T08:34:18;4.50;;;1.60;;
77004;SDS011;67261;53.132;18.006;2023-04-03T08:36:46;4.20;;;1.50;;
77004;SDS011;67261;53.132;18.006;2023-04-03T08:39:14;5.90;;;2.30;;
77004;SDS011;67261;53.132;18.006;2023-04-03T08:41:42;4.80;;;1.90;;
77004;SDS011;67261;53.132;18.006;2023-04-03T08:49:28;4.00;;;1.60;;
77004;SDS011;67261;53.132;18.006;2023-04-03T08:51:59;3.60;;;1.80;;
77004;SDS011;67261;53.132;18.006;2023-04-03T08:54:31;4.00;;;1.60;;
77004;SDS011;67261;53.132;18.006;2023-04-03T08:57:02;4.80;;;1.30;;
77004;SDS011;67261;53.132;18.006;2023-04-03T08:59:33;4.10;;;1.60;;
77004;SDS011;67261;53.132;18.006;2023-04-03T09:02:16;3.80;;;1.50;;
77004;SDS011;67261;53.132;18.006;2023-04-03T09:04:55;4.00;;;1.60;;
77004;SDS011;67261;53.132;18.006;2023-04-03T09:07:35;4.70;;;1.70;;
77004;SDS011;67261;53.132;18.006;2023-04-03T09:10:14;5.30;;;1.80;;
77004;SDS011;67261;53.132;18.006;2023-04-03T09:12:44;5.10;;;1.60;;
77004;SDS011;67261;53.132;18.006;2023-04-03T09:15:21;6.50;;;2.70;;
77004;SDS011;67261;53.132;18.006;2023-04-03T09:20:46;4.90;;;1.90;;
77004;SDS011;67261;53.132;18.006;2023-04-03T09:26:17;4.50;;;1.60;;
77004;SDS011;67261;53.132;18.006;2023-04-03T09:29:06;6.50;;;1.90;;
77004;SDS011;67261;53.132;18.006;2023-04-03T09:31:39;11.50;;;4.30;;
77004;SDS011;67261;53.132;18.006;2023-04-03T09:34:13;3.70;;;1.40;;
77004;SDS011;67261;53.132;18.006;2023-04-03T09:36:55;5.90;;;2.50;;
77004;SDS011;67261;53.132;18.006;2023-04-03T09:39:25;6.10;;;1.70;;
77004;SDS011;67261;53.132;18.006;2023-04-03T09:44:27;5.70;;;2.00;;
77004;SDS011;67261;53.132;18.006;2023-04-03T09:46:57;4.20;;;1.70;;
77004;SDS011;67261;53.132;18.006;2023-04-03T09:49:24;5.20;;;1.60;;
77004;SDS011;67261;53.132;18.006;2023-04-03T09:51:53;4.30;;;1.40;;
77004;SDS011;67261;53.132;18.006;2023-04-03T09:54:25;5.60;;;1.90;;
77004;SDS011;67261;53.132;18.006;2023-04-03T09:57:06;9.30;;;2.80;;
77004;SDS011;67261;53.132;18.006;2023-04-03T09:59:42;8.90;;;2.80;;
77004;SDS011;67261;53.132;18.006;2023-04-03T10:04:44;6.60;;;3.30;;
77004;SDS011;67261;53.132;18.006;2023-04-03T10:07:32;4.90;;;1.40;;
77004;SDS011;67261;53.132;18.006;2023-04-03T10:12:42;3.30;;;1.20;;
77004;SDS011;67261;53.132;18.006;2023-04-03T10:15:13;4.20;;;1.90;;
77004;SDS011;67261;53.132;18.006;2023-04-03T10:20:44;3.90;;;1.50;;
77004;SDS011;67261;53.132;18.006;2023-04-03T10:23:26;5.70;;;1.80;;
77004;SDS011;67261;53.132;18.006;2023-04-03T10:26:17;4.30;;;1.40;;
77004;SDS011;67261;53.132;18.006;2023-04-03T10:31:53;3.20;;;1.10;;
77004;SDS011;67261;53.132;18.006;2023-04-03T10:34:44;6.30;;;2.20;;
77004;SDS011;67261;53.132;18.006;2023-04-03T10:37:35;3.10;;;1.40;;
77004;SDS011;67261;53.132;18.006;2023-04-03T10:43:02;3.80;;;1.60;;
77004;SDS011;67261;53.132;18.006;2023-04-03T10:45:50;3.80;;;1.40;;
77004;SDS011;67261;53.132;18.006;2023-04-03T10:48:34;4.40;;;1.80;;
77004;SDS011;67261;53.132;18.006;2023-04-03T10:54:01;4.10;;;1.40;;
77004;SDS011;67261;53.132;18.006;2023-04-03T10:59:19;4.20;;;1.40;;
77004;SDS011;67261;53.132;18.006;2023-04-03T11:05:01;4.80;;;1.50;;
77004;SDS011;67261;53.132;18.006;2023-04-03T11:07:49;7.40;;;1.30;;
77004;SDS011;67261;53.132;18.006;2023-04-03T11:10:44;3.40;;;1.20;;
77004;SDS011;67261;53.132;18.006;2023-04-03T11:13:19;2.70;;;0.90;;
77004;SDS011;67261;53.132;18.006;2023-04-03T11:15:55;5.00;;;1.80;;
77004;SDS011;67261;53.132;18.006;2023-04-03T11:19:10;3.30;;;1.40;;
77004;SDS011;67261;53.132;18.006;2023-04-03T11:21:20;3.70;;;1.30;;
77004;SDS011;67261;53.132;18.006;2023-04-03T11:23:53;3.20;;;1.20;;
77004;SDS011;67261;53.132;18.006;2023-04-03T11:26:26;4.80;;;1.80;;
77004;SDS011;67261;53.132;18.006;2023-04-03T11:29:00;4.70;;;2.30;;
77004;SDS011;67261;53.132;18.006;2023-04-03T11:34:31;4.50;;;2.80;;
77004;SDS011;67261;53.132;18.006;2023-04-03T11:37:06;4.30;;;1.50;;
77004;SDS011;67261;53.132;18.006;2023-04-03T11:39:57;3.40;;;1.20;;
77004;SDS011;67261;53.132;18.006;2023-04-03T11:42:39;5.50;;;2.30;;
77004;SDS011;67261;53.132;18.006;2023-04-03T11:47:52;3.90;;;1.60;;
77004;SDS011;67261;53.132;18.006;2023-04-03T11:52:58;3.00;;;1.00;;
77004;SDS011;67261;53.132;18.006;2023-04-03T12:05:55;4.20;;;1.10;;
77004;SDS011;67261;53.132;18.006;2023-04-03T12:11:45;5.50;;;1.60;;
77004;SDS011;67261;53.132;18.006;2023-04-03T12:16:24;4.50;;;1.40;;
77004;SDS011;67261;53.132;18.006;2023-04-03T12:29:38;5.80;;;2.50;;
77004;SDS011;67261;53.132;18.006;2023-04-03T12:35:05;3.00;;;1.00;;
77004;SDS011;67261;53.132;18.006;2023-04-03T12:40:50;4.00;;;1.40;;
77004;SDS011;67261;53.132;18.006;2023-04-03T12:48:38;2.70;;;1.00;;
77004;SDS011;67261;53.132;18.006;2023-04-03T12:54:13;2.00;;;0.70;;
77004;SDS011;67261;53.132;18.006;2023-04-03T12:57:11;5.30;;;1.90;;
77004;SDS011;67261;53.132;18.006;2023-04-03T12:59:43;4.20;;;1.40;;
77004;SDS011;67261;53.132;18.006;2023-04-03T13:04:47;2.30;;;0.80;;
77004;SDS011;67261;53.132;18.006;2023-04-03T13:07:21;4.20;;;1.30;;
77004;SDS011;67261;53.132;18.006;2023-04-03T13:15:30;5.70;;;2.00;;
77004;SDS011;67261;53.132;18.006;2023-04-03T13:18:20;3.00;;;1.10;;
77004;SDS011;67261;53.132;18.006;2023-04-03T13:20:50;2.30;;;1.10;;
77004;SDS011;67261;53.132;18.006;2023-04-03T13:23:19;5.60;;;2.10;;
77004;SDS011;67261;53.132;18.006;2023-04-03T13:25:47;4.10;;;1.70;;
77004;SDS011;67261;53.132;18.006;2023-04-03T13:28:20;3.00;;;1.10;;
77004;SDS011;67261;53.132;18.006;2023-04-03T13:33:27;4.80;;;2.00;;
77004;SDS011;67261;53.132;18.006;2023-04-03T13:36:09;4.10;;;1.80;;
77004;SDS011;67261;53.132;18.006;2023-04-03T13:38:42;6.20;;;1.20;;
77004;SDS011;67261;53.132;18.006;2023-04-03T13:41:30;3.80;;;1.10;;
77004;SDS011;67261;53.132;18.006;2023-04-03T13:46:51;4.20;;;1.50;;
77004;SDS011;67261;53.132;18.006;2023-04-03T13:51:57;2.90;;;1.30;;
77004;SDS011;67261;53.132;18.006;2023-04-03T13:54:33;3.40;;;0.90;;
77004;SDS011;67261;53.132;18.006;2023-04-03T13:57:13;4.10;;;1.50;;
77004;SDS011;67261;53.132;18.006;2023-04-03T13:59:42;3.70;;;1.50;;
77004;SDS011;67261;53.132;18.006;2023-04-03T14:02:14;5.20;;;2.00;;
77004;SDS011;67261;53.132;18.006;2023-04-03T14:07:12;5.30;;;1.70;;
77004;SDS011;67261;53.132;18.006;2023-04-03T14:09:40;4.30;;;1.50;;
77004;SDS011;67261;53.132;18.006;2023-04-03T14:12:11;4.00;;;1.70;;
77004;SDS011;67261;53.132;18.006;2023-04-03T14:14:42;6.10;;;3.00;;
77004;SDS011;67261;53.132;18.006;2023-04-03T14:17:16;4.50;;;1.40;;
77004;SDS011;67261;53.132;18.006;2023-04-03T14:19:45;3.20;;;1.20;;
77004;SDS011;67261;53.132;18.006;2023-04-03T14:22:17;3.00;;;1.20;;
77004;SDS011;67261;53.132;18.006;2023-04-03T14:24:45;3.90;;;1.40;;
77004;SDS011;67261;53.132;18.006;2023-04-03T14:27:15;4.30;;;1.70;;
77004;SDS011;67261;53.132;18.006;2023-04-03T14:29:42;4.70;;;1.20;;
77004;SDS011;67261;53.132;18.006;2023-04-03T14:34:39;6.60;;;2.10;;
77004;SDS011;67261;53.132;18.006;2023-04-03T14:37:11;5.80;;;1.70;;
77004;SDS011;67261;53.132;18.006;2023-04-03T14:39:40;5.70;;;1.60;;
77004;SDS011;67261;53.132;18.006;2023-04-03T14:42:11;6.70;;;3.60;;
77004;SDS011;67261;53.132;18.006;2023-04-03T14:44:40;5.30;;;3.00;;
77004;SDS011;67261;53.132;18.006;2023-04-03T14:47:14;5.30;;;1.80;;
77004;SDS011;67261;53.132;18.006;2023-04-03T14:49:44;6.00;;;2.50;;
77004;SDS011;67261;53.132;18.006;2023-04-03T14:55:00;5.40;;;2.30;;
77004;SDS011;67261;53.132;18.006;2023-04-03T14:57:28;5.30;;;1.60;;
77004;SDS011;67261;53.132;18.006;2023-04-03T14:59:57;6.50;;;1.70;;
77004;SDS011;67261;53.132;18.006;2023-04-03T15:02:29;3.70;;;1.40;;
77004;SDS011;67261;53.132;18.006;2023-04-03T15:04:57;5.20;;;1.50;;
77004;SDS011;67261;53.132;18.006;2023-04-03T15:07:26;4.30;;;1.30;;
77004;SDS011;67261;53.132;18.006;2023-04-03T15:09:56;2.90;;;1.10;;
77004;SDS011;67261;53.132;18.006;2023-04-03T15:12:24;4.30;;;1.50;;
77004;SDS011;67261;53.132;18.006;2023-04-03T15:14:52;4.00;;;1.80;;
77004;SDS011;67261;53.132;18.006;2023-04-03T15:17:20;4.00;;;1.40;;
77004;SDS011;67261;53.132;18.006;2023-04-03T15:19:49;4.60;;;1.50;;
77004;SDS011;67261;53.132;18.006;2023-04-03T15:22:16;5.90;;;1.70;;
77004;SDS011;67261;53.132;18.006;2023-04-03T15:24:45;4.20;;;1.30;;
77004;SDS011;67261;53.132;18.006;2023-04-03T15:27:12;4.00;;;1.50;;
77004;SDS011;67261;53.132;18.006;2023-04-03T15:29:40;5.20;;;1.50;;
77004;SDS011;67261;53.132;18.006;2023-04-03T15:32:08;4.90;;;2.20;;
77004;SDS011;67261;53.132;18.006;2023-04-03T15:34:36;4.80;;;1.40;;
77004;SDS011;67261;53.132;18.006;2023-04-03T15:37:04;6.40;;;2.60;;
77004;SDS011;67261;53.132;18.006;2023-04-03T15:39:32;7.80;;;2.70;;
77004;SDS011;67261;53.132;18.006;2023-04-03T15:41:59;6.50;;;3.70;;
77004;SDS011;67261;53.132;18.006;2023-04-03T15:44:33;5.20;;;1.60;;
77004;SDS011;67261;53.132;18.006;2023-04-03T15:47:00;11.10;;;3.60;;
77004;SDS011;67261;53.132;18.006;2023-04-03T15:49:28;9.70;;;3.00;;
77004;SDS011;67261;53.132;18.006;2023-04-03T15:51:56;6.30;;;2.40;;
77004;SDS011;67261;53.132;18.006;2023-04-03T15:54:23;6.00;;;2.20;;
77004;SDS011;67261;53.132;18.006;2023-04-03T15:56:52;5.40;;;2.10;;
77004;SDS011;67261;53.132;18.006;2023-04-03T15:59:20;5.20;;;1.90;;
77004;SDS011;67261;53.132;18.006;2023-04-03T16:01:47;4.30;;;1.90;;
77004;SDS011;67261;53.132;18.006;2023-04-03T16:04:15;5.80;;;2.70;;
77004;SDS011;67261;53.132;18.006;2023-04-03T16:06:43;6.60;;;2.70;;
77004;SDS011;67261;53.132;18.006;2023-04-03T16:09:10;6.20;;;2.50;;
77004;SDS011;67261;53.132;18.006;2023-04-03T16:11:39;3.90;;;1.60;;
77004;SDS011;67261;53.132;18.006;2023-04-03T16:14:09;5.20;;;1.80;;
77004;SDS011;67261;53.132;18.006;2023-04-03T16:16:36;4.90;;;1.80;;
77004;SDS011;67261;53.132;18.006;2023-04-03T16:19:05;8.00;;;4.30;;
77004;SDS011;67261;53.132;18.006;2023-04-03T16:21:32;4.00;;;1.60;;
77004;SDS011;67261;53.132;18.006;2023-04-03T16:24:00;5.40;;;1.70;;
77004;SDS011;67261;53.132;18.006;2023-04-03T16:26:28;5.30;;;1.80;;
77004;SDS011;67261;53.132;18.006;2023-04-03T16:28:55;6.40;;;2.30;;
77004;SDS011;67261;53.132;18.006;2023-04-03T16:31:23;3.90;;;1.70;;
77004;SDS011;67261;53.132;18.006;2023-04-03T16:33:51;3.90;;;1.60;;
77004;SDS011;67261;53.132;18.006;2023-04-03T16:36:22;5.10;;;1.90;;
77004;SDS011;67261;53.132;18.006;2023-04-03T16:38:51;3.50;;;1.30;;
77004;SDS011;67261;53.132;18.006;2023-04-03T16:41:19;4.80;;;2.00;;
77004;SDS011;67261;53.132;18.006;2023-04-03T16:43:46;7.20;;;2.60;;
77004;SDS011;67261;53.132;18.006;2023-04-03T16:46:13;6.40;;;2.40;;
77004;SDS011;67261;53.132;18.006;2023-04-03T16:48:40;4.80;;;2.00;;
77004;SDS011;67261;53.132;18.006;2023-04-03T16:51:07;4.60;;;1.80;;
77004;SDS011;67261;53.132;18.006;2023-04-03T16:53:34;4.90;;;2.10;;
77004;SDS011;67261;53.132;18.006;2023-04-03T16:56:02;6.00;;;2.20;;
77004;SDS011;67261;53.132;18.006;2023-04-03T16:58:29;3.40;;;1.40;;
77004;SDS011;67261;53.132;18.006;2023-04-03T17:00:56;4.90;;;1.70;;
77004;SDS011;67261;53.132;18.006;2023-04-03T17:03:24;3.30;;;1.20;;